createdAt,value
2023-04-01T00:00:05.963Z,22.34
2023-04-01T00:01:05.968Z,22.18
2023-04-01T00:02:05.939Z,21.86
2023-04-01T00:03:06.000Z,21.86
2023-04-01T00:04:06.002Z,22.24
2023-04-01T00:05:05.886Z,21.97
2023-04-01T00:06:05.877Z,21.91
2023-04-01T00:07:05.862Z,22.08
2023-04-01T00:08:05.844Z,22.29
2023-04-01T00:09:05.837Z,21.91
2023-04-01T00:10:05.821Z,21.91
2023-04-01T00:11:05.808Z,21.97
2023-04-01T00:12:05.795Z,21.91
2023-04-01T00:13:05.780Z,21.97
2023-04-01T00:14:05.764Z,21.86
2023-04-01T00:15:05.757Z,21.97
2023-04-01T00:16:09.764Z,22.18
2023-04-01T00:17:06.818Z,22.02
2023-04-01T00:18:05.769Z,21.97
2023-04-01T00:19:05.701Z,22.24
2023-04-01T00:20:05.687Z,21.91
2023-04-01T00:21:05.669Z,21.86
2023-04-01T00:22:05.663Z,21.97
2023-04-01T00:23:05.645Z,22.29
2023-04-01T00:24:05.641Z,21.91
2023-04-01T00:25:05.629Z,21.81
2023-04-01T00:26:05.608Z,21.86
2023-04-01T00:27:05.589Z,21.70
2023-04-01T00:28:05.577Z,22.29
2023-04-01T00:29:05.626Z,21.65
2023-04-01T00:30:05.552Z,21.81
2023-04-01T00:31:05.544Z,21.97
2023-04-01T00:32:05.697Z,21.91
2023-04-01T00:33:05.592Z,21.97
2023-04-01T00:34:05.504Z,21.97
2023-04-01T00:35:05.503Z,21.86
2023-04-01T00:36:05.525Z,21.91
2023-04-01T00:37:05.457Z,21.97
2023-04-01T00:38:05.456Z,22.08
2023-04-01T00:39:05.433Z,22.18
2023-04-01T00:40:05.417Z,22.02
2023-04-01T00:41:05.406Z,21.97
2023-04-01T00:42:05.393Z,22.08
2023-04-01T00:43:05.374Z,21.86
2023-04-01T00:44:05.362Z,21.91
2023-04-01T00:45:05.348Z,21.91
2023-04-01T00:46:05.340Z,21.86
2023-04-01T00:47:05.346Z,21.97
2023-04-01T00:48:05.357Z,22.02
2023-04-01T00:49:05.316Z,22.13
2023-04-01T00:50:05.290Z,21.91
2023-04-01T00:51:05.269Z,21.97
2023-04-01T00:52:05.254Z,21.86
2023-04-01T00:53:05.237Z,21.97
2023-04-01T00:54:05.225Z,21.86
2023-04-01T00:55:05.212Z,21.97
2023-04-01T00:56:05.199Z,21.97
2023-04-01T00:57:05.314Z,21.91
2023-04-01T00:58:05.175Z,21.86
2023-04-01T00:59:05.513Z,21.91
2023-04-01T01:00:05.154Z,21.97
2023-04-01T01:01:05.171Z,22.02
2023-04-01T01:02:05.153Z,21.91
2023-04-01T01:03:05.108Z,22.13
2023-04-01T01:04:05.093Z,21.97
2023-04-01T01:05:05.111Z,22.02
2023-04-01T01:06:05.062Z,22.02
2023-04-01T01:07:05.053Z,21.86
2023-04-01T01:08:05.034Z,21.70
2023-04-01T01:09:05.023Z,21.91
2023-04-01T01:10:05.016Z,21.97
2023-04-01T01:11:04.996Z,21.91
2023-04-01T01:12:04.980Z,21.91
2023-04-01T01:13:04.967Z,22.02
2023-04-01T01:14:04.961Z,22.18
2023-04-01T01:15:04.943Z,21.86
2023-04-01T01:16:04.957Z,21.91
2023-04-01T01:17:05.108Z,21.86
2023-04-01T01:18:04.922Z,21.75
2023-04-01T01:19:04.882Z,21.91
2023-04-01T01:20:10.033Z,21.91
2023-04-01T01:21:05.922Z,21.91
2023-04-01T01:22:04.860Z,22.08
2023-04-01T01:23:04.832Z,21.91
2023-04-01T01:24:04.816Z,21.86
2023-04-01T01:25:04.802Z,21.91
2023-04-01T01:26:04.797Z,21.97
2023-04-01T01:27:04.873Z,21.97
2023-04-01T01:28:04.773Z,21.97
2023-04-01T01:29:04.752Z,22.08
2023-04-01T01:30:04.733Z,21.81
2023-04-01T01:31:04.776Z,21.81
2023-04-01T01:32:04.707Z,21.91
2023-04-01T01:33:04.739Z,21.91
2023-04-01T01:34:04.692Z,22.18
2023-04-01T01:35:04.670Z,22.24
2023-04-01T01:36:04.676Z,21.97
2023-04-01T01:37:04.669Z,22.18
2023-04-01T01:38:04.629Z,22.02
2023-04-01T01:39:04.608Z,21.86
2023-04-01T01:40:04.601Z,21.75
2023-04-01T01:41:04.587Z,22.02
2023-04-01T01:42:04.572Z,21.70
2023-04-01T01:43:04.560Z,21.91
2023-04-01T01:44:04.557Z,22.24
2023-04-01T01:45:04.537Z,22.02
2023-04-01T01:46:04.547Z,21.91
2023-04-01T01:47:04.504Z,22.29
2023-04-01T01:48:04.554Z,21.97
2023-04-01T01:49:04.473Z,21.81
2023-04-01T01:50:04.807Z,21.91
2023-04-01T01:51:04.447Z,21.86
2023-04-01T01:52:04.436Z,21.97
2023-04-01T01:53:04.445Z,21.91
2023-04-01T01:54:04.407Z,21.91
2023-04-01T01:55:04.603Z,21.91
2023-04-01T01:56:04.392Z,21.86
2023-04-01T01:57:04.407Z,21.91
2023-04-01T01:58:04.365Z,21.81
2023-04-01T01:59:04.339Z,21.91
2023-04-01T02:00:04.340Z,21.91
2023-04-01T02:01:04.371Z,21.86
2023-04-01T02:02:04.301Z,21.86
2023-04-01T02:03:04.336Z,21.91
2023-04-01T02:04:04.309Z,21.91
2023-04-01T02:05:04.258Z,21.86
2023-04-01T02:06:04.246Z,21.97
2023-04-01T02:07:04.232Z,22.18
2023-04-01T02:08:04.227Z,21.91
2023-04-01T02:09:04.245Z,22.13
2023-04-01T02:10:04.196Z,22.02
2023-04-01T02:11:04.178Z,21.97
2023-04-01T02:12:04.167Z,21.97
2023-04-01T02:13:04.167Z,21.97
2023-04-01T02:14:04.171Z,21.91
2023-04-01T02:15:04.121Z,21.97
2023-04-01T02:16:04.190Z,21.91
2023-04-01T02:17:04.102Z,21.86
2023-04-01T02:18:04.098Z,21.38
2023-04-01T02:19:04.078Z,21.97
2023-04-01T02:20:04.046Z,21.91
2023-04-01T02:21:04.038Z,21.75
2023-04-01T02:22:04.045Z,22.13
2023-04-01T02:23:04.019Z,21.86
2023-04-01T02:24:04.011Z,22.02
2023-04-01T02:25:04.062Z,21.91
2023-04-01T02:26:03.978Z,22.13
2023-04-01T02:27:03.973Z,21.91
2023-04-01T02:28:03.956Z,22.13
2023-04-01T02:29:03.937Z,22.02
2023-04-01T02:30:03.931Z,21.81
2023-04-01T02:31:03.971Z,21.91
2023-04-01T02:32:03.888Z,21.97
2023-04-01T02:33:03.942Z,21.97
2023-04-01T02:34:03.865Z,21.91
2023-04-01T02:35:03.855Z,21.91
2023-04-01T02:36:03.897Z,21.86
2023-04-01T02:37:03.827Z,21.70
2023-04-01T02:38:03.810Z,21.86
2023-04-01T02:39:03.797Z,21.97
2023-04-01T02:40:03.786Z,22.08
2023-04-01T02:41:03.791Z,21.91
2023-04-01T02:42:03.750Z,22.08
2023-04-01T02:43:03.737Z,22.24
2023-04-01T02:44:03.725Z,21.91
2023-04-01T02:45:03.713Z,21.86
2023-04-01T02:46:03.706Z,22.24
2023-04-01T02:47:05.797Z,21.81
2023-04-01T02:48:03.701Z,22.08
2023-04-01T02:49:03.660Z,21.81
2023-04-01T02:50:03.651Z,22.08
2023-04-01T02:51:03.660Z,22.13
2023-04-01T02:52:03.623Z,21.97
2023-04-01T02:53:03.609Z,21.91
2023-04-01T02:54:03.594Z,21.91
2023-04-01T02:55:03.602Z,21.91
2023-04-01T02:56:03.565Z,21.91
2023-04-01T02:57:03.605Z,22.40
2023-04-01T02:58:03.547Z,21.91
2023-04-01T02:59:03.534Z,21.75
2023-04-01T03:00:03.520Z,21.91
2023-04-01T03:01:03.536Z,21.91
2023-04-01T03:02:03.611Z,21.91
2023-04-01T03:03:03.737Z,21.91
2023-04-01T03:04:03.659Z,21.91
2023-04-01T03:05:03.451Z,21.86
2023-04-01T03:06:03.443Z,21.91
2023-04-01T03:07:03.420Z,21.43
2023-04-01T03:08:03.421Z,21.97
2023-04-01T03:09:03.393Z,21.91
2023-04-01T03:10:03.383Z,21.91
2023-04-01T03:11:03.365Z,22.29
2023-04-01T03:12:03.350Z,21.91
2023-04-01T03:13:03.361Z,21.97
2023-04-01T03:14:03.342Z,21.97
2023-04-01T03:15:11.367Z,21.91
2023-04-01T03:16:04.383Z,21.86
2023-04-01T03:17:03.298Z,21.32
2023-04-01T03:18:03.296Z,21.91
2023-04-01T03:19:03.319Z,21.91
2023-04-01T03:20:03.234Z,21.91
2023-04-01T03:21:03.238Z,21.91
2023-04-01T03:22:03.245Z,22.18
2023-04-01T03:23:03.209Z,21.32
2023-04-01T03:24:03.187Z,22.08
2023-04-01T03:25:03.164Z,21.32
2023-04-01T03:26:03.154Z,21.27
2023-04-01T03:27:03.150Z,22.02
2023-04-01T03:28:03.133Z,21.86
2023-04-01T03:29:03.141Z,21.91
2023-04-01T03:30:03.140Z,21.81
2023-04-01T03:31:03.141Z,21.48
2023-04-01T03:32:03.089Z,21.91
2023-04-01T03:33:03.085Z,21.86
2023-04-01T03:34:03.062Z,21.86
2023-04-01T03:35:03.042Z,21.97
2023-04-01T03:36:03.018Z,21.86
2023-04-01T03:37:03.005Z,21.91
2023-04-01T03:38:02.997Z,21.91
2023-04-01T03:39:02.994Z,21.32
2023-04-01T03:40:02.960Z,21.91
2023-04-01T03:41:02.950Z,21.48
2023-04-01T03:42:02.937Z,21.32
2023-04-01T03:43:03.042Z,21.91
2023-04-01T03:44:02.900Z,22.08
2023-04-01T03:45:02.907Z,22.08
2023-04-01T03:46:02.894Z,21.91
2023-04-01T03:47:02.858Z,21.86
2023-04-01T03:48:02.864Z,21.97
2023-04-01T03:49:02.849Z,21.97
2023-04-01T03:50:02.820Z,21.97
2023-04-01T03:51:02.804Z,21.43
2023-04-01T03:52:02.803Z,22.08
2023-04-01T03:53:02.780Z,21.97
2023-04-01T03:54:02.773Z,21.91
2023-04-01T03:55:02.767Z,21.97
2023-04-01T03:56:02.742Z,21.91
2023-04-01T03:57:02.735Z,21.91
2023-04-01T03:58:02.711Z,21.91
2023-04-01T03:59:02.712Z,22.08
2023-04-01T04:00:02.686Z,21.97
2023-04-01T04:01:02.692Z,21.97
2023-04-01T04:02:02.664Z,22.24
2023-04-01T04:03:02.773Z,21.43
2023-04-01T04:04:02.653Z,22.08
2023-04-01T04:05:02.619Z,21.38
2023-04-01T04:06:02.605Z,21.91
2023-04-01T04:07:02.592Z,21.38
2023-04-01T04:08:02.628Z,21.97
2023-04-01T04:09:02.574Z,22.18
2023-04-01T04:10:02.648Z,21.91
2023-04-01T04:11:02.535Z,21.91
2023-04-01T04:12:02.515Z,21.97
2023-04-01T04:13:02.507Z,21.91
2023-04-01T04:14:02.507Z,21.91
2023-04-01T04:15:02.485Z,21.91
2023-04-01T04:16:02.595Z,21.97
2023-04-01T04:17:02.511Z,21.97
2023-04-01T04:18:02.512Z,21.91
2023-04-01T04:19:02.442Z,21.91
2023-04-01T04:20:02.426Z,21.97
2023-04-01T04:21:02.402Z,21.91
2023-04-01T04:22:02.409Z,21.43
2023-04-01T04:23:02.364Z,21.54
2023-04-01T04:24:02.363Z,21.48
2023-04-01T04:25:02.343Z,21.38
2023-04-01T04:26:02.327Z,21.91
2023-04-01T04:27:02.306Z,21.91
2023-04-01T04:28:02.301Z,22.13
2023-04-01T04:29:02.318Z,21.91
2023-04-01T04:30:02.281Z,21.32
2023-04-01T04:31:02.254Z,21.97
2023-04-01T04:32:02.384Z,21.91
2023-04-01T04:33:02.289Z,21.91
2023-04-01T04:34:02.233Z,22.08
2023-04-01T04:35:02.203Z,21.91
2023-04-01T04:36:02.632Z,21.91
2023-04-01T04:37:02.171Z,21.86
2023-04-01T04:38:02.168Z,21.91
2023-04-01T04:39:02.151Z,21.32
2023-04-01T04:40:02.145Z,21.38
2023-04-01T04:41:02.113Z,21.81
2023-04-01T04:42:02.104Z,21.27
2023-04-01T04:43:02.086Z,21.75
2023-04-01T04:44:02.099Z,21.32
2023-04-01T04:45:02.053Z,21.91
2023-04-01T04:46:02.044Z,21.38
2023-04-01T04:47:02.078Z,21.91
2023-04-01T04:48:02.072Z,21.32
2023-04-01T04:49:02.029Z,21.38
2023-04-01T04:50:02.006Z,21.48
2023-04-01T04:51:01.978Z,21.38
2023-04-01T04:52:01.971Z,21.32
2023-04-01T04:53:01.954Z,21.22
2023-04-01T04:54:01.942Z,21.27
2023-04-01T04:55:01.931Z,21.48
2023-04-01T04:56:01.913Z,21.81
2023-04-01T04:57:01.903Z,21.86
2023-04-01T04:58:01.879Z,21.27
2023-04-01T04:59:01.870Z,21.43
2023-04-01T05:00:01.861Z,21.32
2023-04-01T05:01:01.884Z,21.38
2023-04-01T05:02:01.890Z,21.86
2023-04-01T05:03:01.987Z,21.32
2023-04-01T05:04:01.814Z,22.08
2023-04-01T05:05:01.815Z,21.86
2023-04-01T05:06:01.779Z,21.86
2023-04-01T05:07:01.757Z,21.97
2023-04-01T05:08:01.764Z,21.38
2023-04-01T05:09:01.932Z,21.32
2023-04-01T05:10:01.730Z,21.32
2023-04-01T05:11:01.704Z,21.32
2023-04-01T05:12:01.687Z,21.38
2023-04-01T05:13:01.676Z,21.22
2023-04-01T05:14:01.711Z,21.86
2023-04-01T05:15:01.652Z,21.27
2023-04-01T05:16:01.630Z,21.91
2023-04-01T05:17:01.865Z,21.32
2023-04-01T05:18:01.672Z,21.38
2023-04-01T05:19:01.594Z,21.38
2023-04-01T05:20:01.617Z,21.32
2023-04-01T05:21:01.591Z,21.91
2023-04-01T05:22:01.565Z,21.38
2023-04-01T05:23:01.550Z,21.38
2023-04-01T05:24:01.531Z,21.32
2023-04-01T05:25:01.520Z,21.38
2023-04-01T05:26:01.502Z,21.86
2023-04-01T05:27:01.696Z,21.32
2023-04-01T05:28:01.488Z,21.27
2023-04-01T05:29:01.466Z,21.32
2023-04-01T05:30:01.472Z,21.27
2023-04-01T05:31:01.492Z,21.32
2023-04-01T05:32:01.419Z,21.32
2023-04-01T05:33:01.464Z,21.86
2023-04-01T05:34:01.392Z,21.38
2023-04-01T05:35:01.375Z,21.32
2023-04-01T05:36:01.462Z,21.59
2023-04-01T05:37:01.373Z,21.54
2023-04-01T05:38:01.344Z,21.32
2023-04-01T05:39:01.331Z,21.22
2023-04-01T05:40:01.311Z,21.32
2023-04-01T05:41:01.296Z,21.22
2023-04-01T05:42:01.284Z,21.32
2023-04-01T05:43:01.274Z,21.32
2023-04-01T05:44:01.607Z,21.27
2023-04-01T05:45:01.250Z,21.38
2023-04-01T05:46:01.233Z,21.32
2023-04-01T05:47:01.220Z,21.32
2023-04-01T05:48:01.276Z,21.32
2023-04-01T05:49:01.188Z,21.38
2023-04-01T05:50:01.188Z,21.97
2023-04-01T05:51:01.162Z,21.38
2023-04-01T05:52:01.152Z,21.32
2023-04-01T05:53:01.161Z,21.48
2023-04-01T05:54:01.139Z,21.32
2023-04-01T05:55:01.138Z,21.32
2023-04-01T05:56:01.094Z,21.54
2023-04-01T05:57:01.112Z,21.32
2023-04-01T05:58:01.066Z,21.32
2023-04-01T05:59:01.056Z,21.32
2023-04-01T06:00:01.039Z,21.32
2023-04-01T06:01:09.463Z,21.59
2023-04-01T06:02:02.038Z,21.54
2023-04-01T06:03:01.180Z,21.38
2023-04-01T06:04:01.275Z,21.27
2023-04-01T06:05:00.967Z,21.43
2023-04-01T06:06:00.963Z,21.32
2023-04-01T06:07:00.950Z,21.38
2023-04-01T06:08:00.926Z,21.38
2023-04-01T06:09:00.942Z,21.32
2023-04-01T06:10:00.912Z,21.38
2023-04-01T06:11:00.927Z,21.27
2023-04-01T06:12:00.887Z,21.48
2023-04-01T06:13:00.865Z,21.32
2023-04-01T06:14:00.840Z,21.38
2023-04-01T06:15:00.839Z,21.32
2023-04-01T06:16:00.855Z,21.32
2023-04-01T06:17:00.877Z,21.32
2023-04-01T06:18:00.826Z,21.43
2023-04-01T06:19:00.778Z,21.27
2023-04-01T06:20:00.759Z,21.32
2023-04-01T06:21:00.753Z,21.32
2023-04-01T06:22:00.741Z,21.48
2023-04-01T06:23:00.729Z,21.11
2023-04-01T06:24:00.759Z,21.48
2023-04-01T06:25:00.743Z,21.43
2023-04-01T06:26:00.693Z,21.38
2023-04-01T06:27:00.685Z,21.38
2023-04-01T06:28:00.654Z,21.59
2023-04-01T06:29:00.654Z,21.48
2023-04-01T06:30:00.637Z,21.32
2023-04-01T06:31:00.634Z,21.38
2023-04-01T06:32:00.658Z,21.48
2023-04-01T06:33:00.647Z,21.38
2023-04-01T06:34:00.575Z,21.54
2023-04-01T06:35:00.861Z,21.32
2023-04-01T06:36:00.587Z,21.32
2023-04-01T06:37:00.557Z,21.16
2023-04-01T06:38:00.522Z,21.32
2023-04-01T06:39:00.516Z,21.05
2023-04-01T06:40:00.496Z,21.05
2023-04-01T06:41:00.512Z,21.38
2023-04-01T06:42:00.467Z,21.16
2023-04-01T06:43:00.462Z,21.38
2023-04-01T06:44:00.440Z,21.43
2023-04-01T06:45:00.533Z,21.32
2023-04-01T06:46:00.444Z,21.27
2023-04-01T06:47:00.421Z,21.32
2023-04-01T06:48:00.440Z,21.00
2023-04-01T06:49:00.381Z,21.32
2023-04-01T06:50:00.372Z,20.95
2023-04-01T06:51:00.351Z,21.11
2023-04-01T06:52:00.348Z,21.38
2023-04-01T06:53:00.325Z,20.89
2023-04-01T06:54:00.314Z,21.27
2023-04-01T06:55:00.301Z,21.43
2023-04-01T06:56:00.286Z,21.32
2023-04-01T06:57:00.332Z,21.38
2023-04-01T06:58:00.277Z,21.27
2023-04-01T06:59:00.498Z,21.38
2023-04-01T07:00:00.234Z,21.27
2023-04-01T07:01:00.263Z,21.38
2023-04-01T07:02:00.208Z,21.32
2023-04-01T07:03:00.219Z,21.32
2023-04-01T07:04:00.310Z,21.32
2023-04-01T07:05:00.167Z,21.32
2023-04-01T07:06:00.145Z,21.38
2023-04-01T07:07:00.147Z,21.54
2023-04-01T07:08:00.115Z,21.11
2023-04-01T07:09:00.114Z,21.38
2023-04-01T07:10:00.145Z,21.22
2023-04-01T07:11:00.116Z,21.70
2023-04-01T07:12:00.096Z,21.48
2023-04-01T07:13:00.128Z,21.32
2023-04-01T07:14:00.060Z,21.32
2023-04-01T07:15:00.033Z,21.38
2023-04-01T07:16:00.030Z,21.38
2023-04-01T07:17:00.044Z,21.48
2023-04-01T07:18:00.215Z,21.70
2023-04-01T07:18:59.982Z,21.97
2023-04-01T07:19:59.960Z,21.43
2023-04-01T07:20:59.942Z,21.32
2023-04-01T07:21:59.930Z,21.32
2023-04-01T07:22:59.914Z,21.38
2023-04-01T07:23:59.900Z,21.05
2023-04-01T07:24:59.891Z,21.32
2023-04-01T07:25:59.876Z,21.38
2023-04-01T07:26:59.874Z,21.32
2023-04-01T07:27:59.847Z,21.32
2023-04-01T07:28:59.865Z,20.95
2023-04-01T07:29:59.828Z,21.32
2023-04-01T07:30:59.851Z,21.05
2023-04-01T07:31:59.791Z,21.43
2023-04-01T07:33:00.012Z,21.05
2023-04-01T07:33:59.757Z,21.43
2023-04-01T07:34:59.748Z,21.32
2023-04-01T07:35:59.759Z,21.32
2023-04-01T07:36:59.732Z,21.32
2023-04-01T07:37:59.713Z,21.32
2023-04-01T07:38:59.758Z,20.79
2023-04-01T07:39:59.686Z,21.27
2023-04-01T07:40:59.671Z,21.00
2023-04-01T07:41:59.705Z,20.95
2023-04-01T07:42:59.653Z,21.32
2023-04-01T07:43:59.639Z,21.38
2023-04-01T07:44:59.670Z,21.38
2023-04-01T07:45:59.640Z,21.16
2023-04-01T07:46:59.592Z,21.38
2023-04-01T07:47:59.594Z,20.95
2023-04-01T07:48:59.564Z,20.95
2023-04-01T07:49:59.555Z,20.89
2023-04-01T07:50:59.537Z,21.48
2023-04-01T07:51:59.575Z,21.00
2023-04-01T07:52:59.513Z,21.43
2023-04-01T07:53:59.497Z,20.89
2023-04-01T07:54:59.786Z,20.89
2023-04-01T07:55:59.471Z,20.95
2023-04-01T07:56:59.489Z,20.89
2023-04-01T07:57:59.447Z,20.89
2023-04-01T07:58:59.533Z,20.95
2023-04-01T07:59:59.417Z,20.89
2023-04-01T08:00:59.430Z,20.73
2023-04-01T08:01:59.392Z,20.95
2023-04-01T08:02:59.542Z,20.73
2023-04-01T08:03:59.541Z,20.95
2023-04-01T08:04:59.541Z,20.89
2023-04-01T08:05:59.337Z,20.95
2023-04-01T08:06:59.332Z,20.95
2023-04-01T08:07:59.607Z,20.84
2023-04-01T08:08:59.451Z,21.00
2023-04-01T08:09:59.278Z,21.00
2023-04-01T08:10:59.264Z,20.95
2023-04-01T08:11:59.297Z,20.95
2023-04-01T08:12:59.241Z,20.95
2023-04-01T08:13:59.477Z,20.95
2023-04-01T08:14:59.210Z,20.95
2023-04-01T08:15:59.219Z,20.89
2023-04-01T08:16:59.203Z,20.95
2023-04-01T08:17:59.192Z,21.00
2023-04-01T08:18:59.452Z,20.95
2023-04-01T08:19:59.135Z,20.89
2023-04-01T08:20:59.129Z,21.00
2023-04-01T08:21:59.114Z,20.95
2023-04-01T08:22:59.098Z,21.00
2023-04-01T08:23:59.096Z,20.84
2023-04-01T08:24:59.072Z,20.89
2023-04-01T08:25:59.054Z,21.00
2023-04-01T08:26:59.042Z,20.89
2023-04-01T08:27:59.275Z,20.95
2023-04-01T08:28:59.022Z,20.95
2023-04-01T08:29:59.353Z,20.89
2023-04-01T08:30:58.999Z,21.16
2023-04-01T08:31:59.027Z,20.95
2023-04-01T08:32:59.229Z,20.89
2023-04-01T08:33:58.947Z,20.89
2023-04-01T08:34:59.285Z,21.00
2023-04-01T08:35:58.970Z,20.89
2023-04-01T08:36:58.911Z,20.95
2023-04-01T08:37:58.902Z,21.11
2023-04-01T08:38:58.882Z,20.89
2023-04-01T08:39:58.856Z,20.95
2023-04-01T08:40:58.858Z,20.95
2023-04-01T08:41:58.834Z,21.16
2023-04-01T08:42:58.824Z,20.95
2023-04-01T08:43:58.815Z,20.95
2023-04-01T08:44:58.799Z,20.95
2023-04-01T08:45:58.852Z,20.95
2023-04-01T08:46:58.773Z,21.00
2023-04-01T08:47:58.765Z,21.00
2023-04-01T08:48:58.768Z,20.95
2023-04-01T08:49:58.742Z,21.16
2023-04-01T08:50:58.728Z,21.00
2023-04-01T08:51:58.901Z,20.95
2023-04-01T08:52:58.704Z,21.00
2023-04-01T08:53:58.673Z,20.95
2023-04-01T08:54:58.667Z,20.89
2023-04-01T08:55:58.657Z,20.89
2023-04-01T08:56:58.662Z,21.00
2023-04-01T08:57:58.646Z,20.89
2023-04-01T08:58:58.624Z,20.95
2023-04-01T08:59:58.628Z,20.95
2023-04-01T09:00:58.605Z,20.95
2023-04-01T09:01:58.630Z,20.95
2023-04-01T09:02:58.687Z,20.95
2023-04-01T09:03:58.653Z,20.95
2023-04-01T09:04:58.556Z,21.05
2023-04-01T09:05:58.525Z,20.95
2023-04-01T09:06:58.521Z,21.00
2023-04-01T09:07:58.494Z,20.95
2023-04-01T09:08:58.474Z,20.95
2023-04-01T09:09:58.468Z,20.68
2023-04-01T09:10:58.450Z,21.00
2023-04-01T09:11:58.439Z,20.95
2023-04-01T09:12:58.621Z,21.22
2023-04-01T09:13:58.429Z,20.84
2023-04-01T09:14:58.401Z,20.89
2023-04-01T09:15:58.427Z,21.00
2023-04-01T09:16:58.366Z,20.95
2023-04-01T09:17:58.379Z,20.95
2023-04-01T09:18:58.344Z,20.89
2023-04-01T09:19:58.330Z,20.89
2023-04-01T09:20:58.334Z,21.00
2023-04-01T09:21:58.302Z,20.95
2023-04-01T09:22:58.292Z,20.95
2023-04-01T09:23:58.276Z,21.00
2023-04-01T09:24:58.270Z,20.95
2023-04-01T09:25:58.252Z,20.95
2023-04-01T09:26:59.637Z,20.89
2023-04-01T09:27:58.217Z,21.00
2023-04-01T09:28:58.208Z,20.95
2023-04-01T09:29:58.224Z,21.16
2023-04-01T09:30:58.196Z,21.00
2023-04-01T09:31:58.176Z,20.84
2023-04-01T09:32:58.178Z,20.95
2023-04-01T09:33:58.149Z,20.95
2023-04-01T09:34:58.133Z,20.95
2023-04-01T09:35:58.237Z,20.95
2023-04-01T09:36:58.122Z,20.95
2023-04-01T09:37:58.095Z,20.73
2023-04-01T09:38:58.073Z,20.89
2023-04-01T09:39:58.065Z,21.05
2023-04-01T09:40:58.054Z,21.00
2023-04-01T09:41:58.045Z,21.38
2023-04-01T09:42:58.021Z,20.95
2023-04-01T09:43:58.009Z,20.95
2023-04-01T09:44:57.993Z,20.89
2023-04-01T09:45:58.028Z,20.95
2023-04-01T09:46:57.973Z,21.00
2023-04-01T09:47:58.007Z,20.95
2023-04-01T09:48:57.952Z,20.95
2023-04-01T09:49:57.934Z,21.00
2023-04-01T09:50:57.914Z,21.00
2023-04-01T09:51:57.897Z,21.05
2023-04-01T09:52:57.914Z,21.00
2023-04-01T09:53:57.887Z,20.95
2023-04-01T09:54:57.861Z,21.05
2023-04-01T09:55:57.853Z,21.00
2023-04-01T09:56:57.886Z,20.73
2023-04-01T09:57:57.826Z,20.95
2023-04-01T09:58:57.802Z,20.95
2023-04-01T09:59:57.787Z,20.95
2023-04-01T10:00:57.782Z,20.95
2023-04-01T10:01:57.793Z,21.00
2023-04-01T10:02:57.777Z,20.95
2023-04-01T10:03:57.745Z,21.27
2023-04-01T10:04:57.717Z,21.05
2023-04-01T10:05:57.741Z,20.89
2023-04-01T10:06:57.704Z,20.95
2023-04-01T10:07:57.681Z,21.11
2023-04-01T10:08:57.694Z,20.68
2023-04-01T10:09:57.650Z,21.05
2023-04-01T10:10:57.645Z,20.95
2023-04-01T10:11:57.621Z,21.00
2023-04-01T10:12:57.610Z,21.38
2023-04-01T10:13:57.620Z,20.95
2023-04-01T10:14:57.586Z,20.89
2023-04-01T10:15:57.638Z,20.95
2023-04-01T10:16:57.561Z,20.95
2023-04-01T10:17:57.576Z,20.95
2023-04-01T10:18:57.530Z,20.57
2023-04-01T10:19:57.720Z,20.95
2023-04-01T10:20:57.507Z,20.95
2023-04-01T10:21:57.513Z,21.00
2023-04-01T10:22:57.479Z,21.11
2023-04-01T10:23:57.472Z,20.95
2023-04-01T10:24:57.471Z,21.27
2023-04-01T10:25:57.439Z,20.95
2023-04-01T10:26:57.446Z,21.00
2023-04-01T10:27:57.408Z,21.32
2023-04-01T10:28:57.414Z,21.00
2023-04-01T10:29:57.389Z,20.95
2023-04-01T10:30:57.368Z,20.95
2023-04-01T10:31:57.382Z,20.89
2023-04-01T10:32:57.433Z,20.89
2023-04-01T10:33:57.327Z,20.95
2023-04-01T10:34:57.312Z,20.68
2023-04-01T10:35:57.312Z,20.84
2023-04-01T10:36:57.302Z,21.00
2023-04-01T10:37:57.276Z,21.05
2023-04-01T10:38:57.264Z,20.95
2023-04-01T10:39:57.794Z,20.52
2023-04-01T10:40:57.256Z,20.89
2023-04-01T10:41:57.268Z,20.57
2023-04-01T10:42:57.206Z,20.95
2023-04-01T10:43:57.196Z,20.89
2023-04-01T10:44:57.191Z,20.89
2023-04-01T10:45:57.197Z,20.95
2023-04-01T10:46:57.156Z,20.89
2023-04-01T10:47:57.156Z,20.89
2023-04-01T10:48:57.129Z,20.57
2023-04-01T10:49:57.108Z,20.95
2023-04-01T10:50:57.092Z,21.00
2023-04-01T10:51:57.083Z,20.52
2023-04-01T10:52:57.064Z,20.95
2023-04-01T10:53:57.054Z,20.95
2023-04-01T10:54:57.052Z,21.00
2023-04-01T10:55:57.146Z,20.95
2023-04-01T10:56:57.068Z,20.52
2023-04-01T10:57:56.999Z,20.95
2023-04-01T10:58:56.993Z,20.57
2023-04-01T10:59:56.972Z,21.00
2023-04-01T11:00:56.979Z,20.79
2023-04-01T11:02:10.101Z,20.89
2023-04-01T11:02:57.988Z,21.38
2023-04-01T11:03:57.187Z,20.95
2023-04-01T11:04:56.906Z,20.95
2023-04-01T11:05:56.888Z,20.57
2023-04-01T11:06:56.876Z,20.95
2023-04-01T11:08:05.382Z,20.57
2023-04-01T11:08:57.883Z,20.57
2023-04-01T11:09:56.836Z,21.00
2023-04-01T11:10:56.823Z,21.11
2023-04-01T11:11:56.816Z,20.95
2023-04-01T11:12:56.836Z,20.62
2023-04-01T11:13:56.786Z,21.11
2023-04-01T11:14:56.772Z,21.05
2023-04-01T11:15:56.773Z,20.89
2023-04-01T11:16:56.780Z,21.00
2023-04-01T11:17:56.797Z,20.95
2023-04-01T11:18:56.708Z,20.89
2023-04-01T11:19:56.713Z,20.95
2023-04-01T11:20:56.687Z,20.57
2023-04-01T11:21:56.669Z,20.52
2023-04-01T11:22:56.654Z,20.57
2023-04-01T11:24:05.070Z,20.52
2023-04-01T11:24:57.659Z,21.05
2023-04-01T11:25:56.632Z,21.11
2023-04-01T11:26:56.656Z,20.57
2023-04-01T11:27:56.589Z,20.89
2023-04-01T11:28:56.595Z,20.57
2023-04-01T11:30:00.074Z,20.57
2023-04-01T11:30:56.578Z,21.16
2023-04-01T11:31:56.540Z,20.79
2023-04-01T11:32:56.581Z,21.05
2023-04-01T11:33:56.524Z,20.62
2023-04-01T11:34:56.496Z,21.00
2023-04-01T11:35:56.478Z,20.57
2023-04-01T11:36:56.496Z,20.79
2023-04-01T11:37:56.455Z,20.57
2023-04-01T11:38:56.675Z,20.95
2023-04-01T11:39:57.776Z,20.57
2023-04-01T11:40:56.410Z,20.52
2023-04-01T11:41:56.394Z,20.46
2023-04-01T11:42:56.381Z,20.95
2023-04-01T11:43:56.377Z,20.52
2023-04-01T11:44:56.380Z,20.52
2023-04-01T11:45:56.353Z,20.95
2023-04-01T11:46:56.423Z,20.57
2023-04-01T11:47:56.569Z,20.95
2023-04-01T11:48:56.293Z,20.95
2023-04-01T11:49:56.296Z,20.57
2023-04-01T11:50:56.281Z,20.52
2023-04-01T11:51:56.255Z,20.52
2023-04-01T11:52:56.245Z,20.57
2023-04-01T11:53:56.242Z,20.46
2023-04-01T11:54:56.228Z,20.62
2023-04-01T11:55:56.219Z,20.57
2023-04-01T11:56:56.220Z,20.95
2023-04-01T11:57:56.184Z,20.57
2023-04-01T11:58:56.170Z,20.52
2023-04-01T11:59:56.150Z,20.57
2023-04-01T12:00:56.170Z,20.95
2023-04-01T12:01:56.120Z,20.89
2023-04-01T12:02:56.229Z,20.57
2023-04-01T12:03:56.268Z,20.52
2023-04-01T12:04:56.227Z,20.84
2023-04-01T12:05:56.061Z,20.73
2023-04-01T12:06:56.051Z,20.52
2023-04-01T12:07:56.065Z,20.36
2023-04-01T12:08:56.029Z,20.57
2023-04-01T12:09:56.008Z,20.62
2023-04-01T12:10:56.006Z,20.57
2023-04-01T12:11:55.985Z,20.46
2023-04-01T12:13:01.203Z,20.68
2023-04-01T12:13:55.961Z,20.52
2023-04-01T12:14:55.960Z,21.00
2023-04-01T12:15:55.992Z,20.52
2023-04-01T12:16:55.940Z,20.52
2023-04-01T12:17:55.949Z,20.62
2023-04-01T12:18:55.890Z,20.62
2023-04-01T12:19:55.878Z,20.68
2023-04-01T12:20:55.858Z,20.52
2023-04-01T12:21:55.845Z,20.57
2023-04-01T12:22:55.831Z,20.57
2023-04-01T12:23:55.829Z,20.57
2023-04-01T12:24:55.819Z,20.62
2023-04-01T12:25:55.791Z,20.57
2023-04-01T12:26:55.776Z,20.73
2023-04-01T12:27:55.776Z,20.57
2023-04-01T12:28:55.753Z,20.62
2023-04-01T12:29:55.737Z,20.68
2023-04-01T12:30:55.723Z,20.46
2023-04-01T12:31:55.723Z,20.57
2023-04-01T12:32:55.755Z,20.52
2023-04-01T12:33:55.678Z,20.57
2023-04-01T12:34:55.671Z,20.62
2023-04-01T12:35:55.669Z,20.57
2023-04-01T12:36:55.641Z,20.57
2023-04-01T12:37:55.630Z,20.68
2023-04-01T12:38:55.611Z,20.57
2023-04-01T12:39:55.600Z,20.57
2023-04-01T12:40:55.588Z,20.57
2023-04-01T12:41:55.568Z,20.62
2023-04-01T12:42:55.911Z,20.52
2023-04-01T12:43:55.551Z,20.68
2023-04-01T12:44:55.530Z,20.52
2023-04-01T12:45:55.558Z,20.68
2023-04-01T12:46:55.520Z,20.84
2023-04-01T12:47:55.667Z,20.79
2023-04-01T12:48:55.501Z,20.57
2023-04-01T12:49:55.475Z,20.62
2023-04-01T12:50:55.461Z,20.84
2023-04-01T12:51:55.437Z,20.95